»·PEaware :: AAL524 KSLC-KEGE

AAL524 :: KSLC-KEGE

FLIGHT INFORMATION

Flight Status: Arrived
Operator:
American Airlines
More flights by this operator :: More flights under this callsign
Pilot: Brogan L. (12398)
Aircraft: BOEING 737-300
(B733)
More flights by this aircraft type
Origin: KSLC Salt Lake City Intl
United States
Destination: KEGE Eagle Co Regl
United States
More flights between these airports :: More routes between these airports
Route: LEETZ5 EKR RLG
File this flight plan on PilotEdge
Remarks:
Altitude:
(Current/Filed)
31,000ft
Speed:
(Current/Filed)
433kts
Departed: 07-Jun-17 04:02 PM
Arrived: 07-Jun-17 04:58 PM
Distance/Time
Traveled:
242nm/0:56
Distance/Time
To Go:
Arrived

Flight Plot

Page will automatically refresh every two minutes.


Map Options




Map Legend


Flown Route
Filed Route
Departure Airport
Arrival Airport
Navaid (VOR, NDB)
Fix

Horizontal Profiles

Position Reports

Time Latitude Longitude Heading Altitude Ground
Speed
07-Jun-17 15:41 40.785213 -111.977976 351 4234ft 0kts
07-Jun-17 15:42 40.785213 -111.977976 351 4234ft 0kts
07-Jun-17 15:43 40.785213 -111.977976 351 4234ft 0kts
07-Jun-17 15:44 40.785213 -111.977976 351 4234ft 0kts
07-Jun-17 15:45 40.785213 -111.977976 351 4234ft 0kts
07-Jun-17 15:46 40.785213 -111.977976 351 4234ft 0kts
07-Jun-17 15:47 40.785213 -111.977976 351 4234ft 0kts
07-Jun-17 15:48 40.785213 -111.977976 351 4234ft 0kts
07-Jun-17 15:49 40.785213 -111.977976 351 4234ft 0kts
07-Jun-17 15:50 40.785213 -111.977976 351 4234ft 0kts
07-Jun-17 15:51 40.785213 -111.977976 351 4234ft 0kts
07-Jun-17 15:52 40.784980 -111.977928 350 4234ft 0kts
07-Jun-17 15:53 40.784520 -111.977816 348 4234ft 0kts
07-Jun-17 15:54 40.784520 -111.977816 348 4234ft 0kts
07-Jun-17 15:55 40.784520 -111.977816 348 4234ft 0kts
07-Jun-17 15:56 40.784520 -111.977816 348 4234ft 0kts
07-Jun-17 15:57 40.784640 -111.977672 80 4234ft 0kts
07-Jun-17 15:58 40.785522 -111.976576 357 4234ft 12kts
07-Jun-17 15:59 40.790062 -111.977117 355 4234ft 23kts
07-Jun-17 16:00 40.796737 -111.977856 354 4234ft 24kts
07-Jun-17 16:01 40.803613 -111.978687 358 4234ft 25kts
07-Jun-17 16:02 40.807248 -111.978781 46 4234ft 0kts
07-Jun-17 16:03 40.807442 -111.978301 79 4234ft 8kts
07-Jun-17 16:04 40.798760 -111.975893 175 4234ft 111kts
07-Jun-17 16:05 40.758712 -111.967899 167 5666ft 172kts
07-Jun-17 16:06 40.723455 -111.999988 256 7379ft 217kts
07-Jun-17 16:07 40.759439 -112.078167 317 8269ft 294kts
07-Jun-17 16:08 40.821180 -112.151408 313 9779ft 307kts
07-Jun-17 16:09 40.886123 -112.229763 327 10980ft 351kts
07-Jun-17 16:10 40.985047 -112.241571 11 13551ft 375kts
07-Jun-17 16:11 41.033477 -112.135808 93 16170ft 379kts
07-Jun-17 16:12 41.004740 -112.003901 113 18591ft 389kts
07-Jun-17 16:13 40.955021 -111.877502 122 20791ft 403kts
07-Jun-17 16:14 40.899092 -111.748439 122 22831ft 417kts
07-Jun-17 16:15 40.843689 -111.621704 119 23820ft 417kts
07-Jun-17 16:16 40.809965 -111.474837 107 25486ft 436kts
07-Jun-17 16:17 40.775995 -111.322425 107 27499ft 439kts
07-Jun-17 16:18 40.741065 -111.168350 107 28853ft 457kts
07-Jun-17 16:19 40.705452 -111.012051 107 31028ft 449kts
07-Jun-17 16:20 40.670489 -110.858830 108 31228ft 442kts
07-Jun-17 16:21 40.635610 -110.706084 108 31253ft 445kts
07-Jun-17 16:22 40.599837 -110.552341 108 31261ft 448kts
07-Jun-17 16:23 40.565003 -110.403607 108 31211ft 444kts
07-Jun-17 16:24 40.529756 -110.248984 105 31142ft 444kts
07-Jun-17 16:25 40.500350 -110.093524 105 31113ft 445kts
07-Jun-17 16:26 40.470974 -109.938445 105 31122ft 446kts
07-Jun-17 16:27 40.441709 -109.782699 105 31119ft 446kts
07-Jun-17 16:28 40.411780 -109.627742 105 31127ft 446kts
07-Jun-17 16:29 40.381737 -109.472788 105 31125ft 446kts
07-Jun-17 16:30 40.351450 -109.317783 105 31125ft 446kts
07-Jun-17 16:31 40.320824 -109.162241 105 31124ft 446kts
07-Jun-17 16:32 40.290051 -109.007168 106 31116ft 450kts
07-Jun-17 16:33 40.258843 -108.849762 106 31128ft 455kts
07-Jun-17 16:34 40.227539 -108.692643 107 31118ft 450kts
07-Jun-17 16:35 40.195753 -108.536119 107 31195ft 450kts
07-Jun-17 16:36 40.163668 -108.379295 107 31271ft 454kts
07-Jun-17 16:37 40.131309 -108.222285 107 31257ft 451kts
07-Jun-17 16:38 40.099096 -108.067179 107 31242ft 449kts
07-Jun-17 16:39 40.067172 -107.910820 99 30676ft 461kts
07-Jun-17 16:40 40.060891 -107.748140 94 28481ft 450kts
07-Jun-17 16:41 40.054656 -107.586662 94 26326ft 446kts
07-Jun-17 16:42 40.048451 -107.433300 94 24513ft 415kts
07-Jun-17 16:43 40.042406 -107.288822 94 22744ft 402kts
07-Jun-17 16:44 40.036328 -107.147718 94 20977ft 389kts
07-Jun-17 16:45 40.030319 -107.011862 93 19222ft 378kts
07-Jun-17 16:46 40.024384 -106.879863 93 17443ft 370kts
07-Jun-17 16:47 40.018877 -106.751572 92 15679ft 354kts
07-Jun-17 16:48 40.013295 -106.633425 92 14220ft 323kts
07-Jun-17 16:49 40.008057 -106.525621 92 14006ft 301kts
07-Jun-17 16:50 39.966770 -106.449000 167 13779ft 273kts
07-Jun-17 16:51 39.896806 -106.470907 206 13858ft 271kts
07-Jun-17 16:52 39.829986 -106.509213 206 13867ft 265kts
07-Jun-17 16:53 39.763109 -106.543520 200 13617ft 261kts
07-Jun-17 16:54 39.701572 -106.575337 227 12855ft 230kts
07-Jun-17 16:55 39.680990 -106.648285 263 12043ft 214kts
07-Jun-17 16:56 39.671803 -106.719319 261 11002ft 201kts
07-Jun-17 16:57 39.661320 -106.785583 257 9571ft 179kts
07-Jun-17 16:58 39.650155 -106.840666 265 8105ft 146kts
07-Jun-17 16:59 39.645701 -106.889544 263 6803ft 132kts
07-Jun-17 17:00 39.642199 -106.921303 261 6547ft 25kts
07-Jun-17 17:01 39.641348 -106.922686 165 6547ft 0kts

Navigation Log

Ident Type
1. KSLC Airport
2. PPIGG Fix
3. ZEETA Fix
4. HUCKK Fix
5. LEETZ Fix
6. DEWBO Fix
7. MURFI Fix
8. UPJAR Fix
9. BORZI Fix
10. EKR Navaid
11. RLG Navaid
12. KEGE Airport